Latest Weather Observations for Roebourne Airport

IDW60801

Issued at 7:35 pm WST Tuesday 30 September 2014 (issued every 30 minutes, with the page automatically refreshed every 10 minutes)

About weather observations | Map of weather stations | Latest weather observations for WA | Other Formats
Station Details ID: 004090 Name: ROEBOURNE AERO Lat: -20.76 Lon: 117.16 Height: 10.7 m
Data from the previous 72 hours. | See also: Recent months at Roebourne Airport
Date/Time
WST
Temp
°C
App
Temp
°C
Dew
Point
Rel
Hum
%
Delta-T
°C
Wind Press
QNH
hPa
Press
MSL
hPa
Rain
since 9 am
mm
Dir
 
Spd
km/h
Gust
km/h
Spd
kts
Gust
kts
30/07:30pm 27.3 24.6 10.5 35 9.5 WNW 15 17 8 9 1013.6 1013.5 0.0
30/07:00pm 28.4 25.0 9.2 30 10.6 WNW 17 17 9 9 1013.0 1013.0 0.0
30/06:30pm 29.4 26.8 9.5 29 11.1 WNW 13 17 7 9 1012.7 1012.7 0.0
30/06:00pm 31.3 27.6 6.4 21 13.4 NW 15 17 8 9 1012.2 1012.2 0.0
30/05:30pm 32.9 28.1 5.5 18 14.6 NW 20 26 11 14 1011.8 1011.8 0.0
30/05:00pm 34.2 28.7 3.9 15 15.9 WNW 22 28 12 15 1011.5 1011.5 0.0
30/04:30pm 35.2 30.4 4.7 15 16.3 WNW 19 26 10 14 1011.2 1011.2 0.0
30/04:00pm 36.0 31.1 4.3 14 16.9 WNW 19 28 10 15 1010.9 1010.9 0.0
30/03:30pm 35.8 30.7 4.2 14 16.8 WNW 20 32 11 17 1010.8 1010.8 0.0
30/03:00pm 36.3 31.5 4.6 14 17.0 NW 19 26 10 14 1010.9 1010.9 0.0
30/02:30pm 37.0 31.9 4.0 13 17.6 NW 20 33 11 18 1010.9 1010.9 0.0
30/02:00pm 36.6 31.8 4.8 14 17.1 NW 19 32 10 17 1011.0 1011.0 0.0
30/01:30pm 36.9 32.0 4.0 13 17.5 NW 19 33 10 18 1011.3 1011.3 0.0
30/01:00pm 36.4 31.4 4.6 14 17.0 NW 20 24 11 13 1011.8 1011.8 0.0
30/12:30pm 36.8 32.1 5.9 15 16.9 N 20 30 11 16 1012.1 1012.1 0.0
30/12:00pm 36.0 31.5 6.2 16 16.3 N 19 28 10 15 1012.7 1012.7 0.0
30/11:30am 35.4 33.1 7.5 18 15.6 N 9 17 5 9 1013.1 1013.1 0.0
30/11:00am 35.5 31.9 2.9 13 16.9 NW 11 19 6 10 1013.7 1013.6 0.0
30/10:30am 34.1 30.1 2.8 14 16.1 NNW 13 20 7 11 1013.9 1013.8 0.0
30/10:00am 34.4 31.8 3.1 14 16.2 WSW 6 17 3 9 1014.1 1014.0 0.0
30/09:30am 34.2 31.9 5.7 17 15.3 NE 7 13 4 7 1014.2 1014.1 0.0
30/09:00am 32.6 30.8 5.2 18 14.5 ESE 4 11 2 6 1014.2 1014.1 0.0
30/08:30am 30.5 29.7 6.4 22 12.9 CALM 0 6 0 3 1014.2 1014.1 0.0
30/08:00am 28.7 27.2 6.7 25 11.7 SW 4 7 2 4 1014.0 1013.9 0.0
30/07:30am 25.9 23.1 7.0 30 9.9 W 11 15 6 8 1013.6 1013.5 0.0
30/07:00am 23.0 21.3 7.5 37 8.1 WNW 6 7 3 4 1013.6 1013.5 0.0
30/06:30am 20.2 17.4 6.9 42 6.7 WNW 11 13 6 7 1013.2 1013.2 0.0
30/06:00am 20.3 18.5 5.5 38 7.3 S 4 6 2 3 1013.0 1013.0 0.0
30/05:30am 20.2 18.9 5.8 39 7.1 S 2 7 1 4 1012.9 1012.9 0.0
30/05:00am 20.7 18.0 5.5 37 7.5 S 9 11 5 6 1012.7 1012.7 0.0
30/04:30am 21.6 17.8 5.9 36 7.9 SSW 15 17 8 9 1012.5 1012.5 0.0
30/04:00am 21.4 17.4 6.5 38 7.6 SSW 17 17 9 9 1012.3 1012.3 0.0
30/03:30am 20.0 16.4 6.7 42 6.7 S 15 17 8 9 1012.4 1012.4 0.0
30/03:00am 20.4 16.7 6.4 40 7.0 SSW 15 17 8 9 1012.4 1012.4 0.0
30/02:30am 21.3 18.1 6.8 39 7.4 SW 13 15 7 8 1012.5 1012.5 0.0
30/02:00am 22.1 19.2 8.2 41 7.3 SW 13 15 7 8 1012.6 1012.6 0.0
30/01:30am 20.7 18.8 9.0 47 6.2 WSW 9 11 5 6 1012.6 1012.6 0.0
30/01:00am 20.8 18.8 10.0 50 5.8 WNW 11 15 6 8 1012.8 1012.8 0.0
30/12:30am 22.1 19.2 10.9 49 6.2 SW 17 20 9 11 1013.0 1013.0 0.0
30/12:00am 23.2 20.3 10.9 46 6.8 WSW 17 20 9 11 1013.1 1013.1 0.0
 
Date/Time
WST
Temp
°C
App
Temp
°C
Dew
Point
Rel
Hum
%
Delta-T
°C
Wind Press
QNH
hPa
Press
MSL
hPa
Rain
since 9 am
mm
Dir
 
Spd
km/h
Gust
km/h
Spd
kts
Gust
kts
29/11:30pm 22.6 21.4 11.7 50 6.1 WSW 9 13 5 7 1013.3 1013.3 0.0
29/11:00pm 22.7 21.1 12.9 54 5.6 W 13 15 7 8 1013.7 1013.6 0.0
29/10:30pm 23.5 20.8 12.8 51 6.1 W 19 22 10 12 1013.8 1013.7 0.0
29/10:00pm 23.9 21.3 13.7 53 6.0 W 20 26 11 14 1014.0 1013.9 0.0
29/09:30pm 24.4 22.0 14.5 54 5.9 W 20 26 11 14 1013.9 1013.8 0.0
29/09:00pm 24.8 22.5 14.6 53 6.1 W 20 26 11 14 1013.8 1013.7 0.0
29/08:30pm 25.5 23.0 14.0 49 6.8 W 20 26 11 14 1013.4 1013.4 0.0
29/08:00pm 26.1 24.0 13.6 46 7.4 W 17 22 9 12 1013.2 1013.2 0.0
29/07:30pm 26.7 24.4 14.1 46 7.5 W 19 24 10 13 1012.9 1012.9 0.0
29/07:00pm 27.4 24.7 13.4 42 8.3 WNW 20 28 11 15 1012.7 1012.7 0.0
29/06:30pm 28.3 25.6 13.4 40 8.8 W 20 26 11 14 1012.3 1012.3 0.0
29/06:00pm 29.1 24.9 12.5 36 9.7 WNW 26 32 14 17 1012.0 1012.0 0.0
29/05:30pm 30.6 26.1 12.5 33 10.7 WNW 28 32 15 17 1011.7 1011.7 0.0
29/05:00pm 32.3 27.8 11.5 28 12.2 WNW 26 33 14 18 1011.4 1011.4 0.0
29/04:30pm 34.7 29.6 9.2 21 14.5 WNW 26 35 14 19 1011.1 1011.1 0.0
29/04:00pm 35.3 30.0 6.6 17 15.8 W 24 35 13 19 1010.9 1010.9 0.0
29/03:30pm 36.0 30.2 8.0 18 15.8 W 28 39 15 21 1010.8 1010.8 0.0
29/03:00pm 36.0 30.6 9.5 20 15.3 W 28 39 15 21 1010.9 1010.9 0.0
29/02:30pm 36.4 30.7 9.8 20 15.4 WNW 30 41 16 22 1011.0 1011.0 0.0
29/02:00pm 36.2 31.0 8.9 19 15.6 W 26 39 14 21 1011.2 1011.2 0.0
29/01:30pm 37.0 32.5 7.0 16 16.7 W 20 33 11 18 1011.5 1011.5 0.0
29/01:00pm 36.4 32.2 5.6 15 16.8 NW 17 24 9 13 1011.8 1011.8 0.0
29/12:30pm 35.4 30.6 5.8 16 16.1 W 20 28 11 15 1012.2 1012.2 0.0
29/12:00pm 35.2 32.9 8.9 20 15.0 W 11 22 6 12 1012.6 1012.6 0.0
29/11:30am 34.5 31.8 7.5 19 15.0 W 11 20 6 11 1013.0 1013.0 0.0
29/11:00am 33.9 31.7 7.8 20 14.5 WNW 9 19 5 10 1013.6 1013.5 0.0
29/10:30am 33.0 31.3 8.5 22 13.7 SSE 7 11 4 6 1014.0 1013.9 0.0
29/10:00am 32.2 30.9 9.1 24 13.0 ESE 6 9 3 5 1014.2 1014.1 0.0
29/09:30am 30.9 30.6 11.3 30 11.4 SSW 4 9 2 5 1014.3 1014.2 0.0
29/09:00am 29.0 28.3 12.0 35 9.9 S 7 11 4 6 1014.5 1014.4 0.0
29/08:30am 27.7 27.4 13.3 41 8.5 SW 7 11 4 6 1014.3 1014.2 0.0
29/08:00am 25.7 25.2 13.9 48 7.0 W 9 13 5 7 1014.2 1014.1 0.0
29/07:30am 23.8 23.5 14.5 56 5.5 W 9 13 5 7 1014.0 1013.9 0.0
29/07:00am 21.9 22.0 14.5 63 4.3 WNW 7 9 4 5 1013.8 1013.7 0.0
29/06:30am 18.9 18.7 13.5 71 3.1 WNW 7 11 4 6 1013.4 1013.4 0.0
29/06:00am 19.0 18.2 13.0 68 3.4 WSW 9 9 5 5 1013.1 1013.1 0.0
29/05:30am 18.9 17.9 13.5 71 3.1 W 11 15 6 8 1012.7 1012.7 0.0
29/05:00am 18.3 17.4 12.7 70 3.1 WNW 9 13 5 7 1012.6 1012.6 0.0
29/04:30am 20.1 19.4 13.3 65 3.9 W 9 11 5 6 1012.3 1012.3 0.0
29/04:00am 20.1 18.4 13.6 66 3.7 WSW 15 19 8 10 1012.1 1012.1 0.0
29/03:30am 20.8 20.1 14.2 66 3.8 WSW 11 13 6 7 1012.2 1012.2 0.0
29/03:00am 19.7 18.6 13.2 66 3.7 W 11 15 6 8 1012.3 1012.3 0.0
29/02:30am 21.0 20.0 13.4 62 4.4 W 11 13 6 7 1012.7 1012.7 0.0
29/02:00am 21.8 20.2 13.9 61 4.6 WSW 15 19 8 10 1012.8 1012.8 0.0
29/01:30am 20.1 19.3 14.0 68 3.5 NW 11 13 6 7 1013.1 1013.1 0.0
29/01:00am 20.8 20.6 13.0 61 4.4 SSW 6 11 3 6 1013.2 1013.2 0.0
29/12:30am 22.4 21.0 14.5 61 4.6 WSW 15 20 8 11 1013.4 1013.4 0.0
29/12:00am 22.4 21.2 15.0 63 4.4 W 15 19 8 10 1013.8 1013.7 0.0
 
Date/Time
WST
Temp
°C
App
Temp
°C
Dew
Point
Rel
Hum
%
Delta-T
°C
Wind Press
QNH
hPa
Press
MSL
hPa
Rain
since 9 am
mm
Dir
 
Spd
km/h
Gust
km/h
Spd
kts
Gust
kts
28/11:30pm 21.7 21.0 15.5 68 3.7 W 13 17 7 9 1014.0 1013.9 0.0
28/11:00pm 22.0 22.6 15.4 66 3.9 WSW 6 9 3 5 1014.3 1014.2 0.0
28/10:30pm 22.1 22.6 15.0 64 4.2 WSW 6 9 3 5 1014.5 1014.4 0.0
28/10:00pm 22.7 22.6 15.0 61 4.6 SW 9 13 5 7 1014.6 1014.5 0.0
28/09:30pm 23.5 22.6 15.8 62 4.7 W 15 20 8 11 1014.6 1014.5 0.0
28/09:00pm 24.2 22.5 16.2 61 4.9 W 20 28 11 15 1014.5 1014.4 0.0
28/08:30pm 24.3 22.9 16.6 62 4.7 W 19 22 10 12 1014.3 1014.2 0.0
28/08:00pm 25.0 23.7 15.9 57 5.5 W 17 20 9 11 1014.1 1014.0 0.0
28/07:30pm 25.7 23.7 15.4 53 6.2 W 20 26 11 14 1013.8 1013.7 0.0
28/07:00pm 26.5 24.0 15.2 49 6.8 WNW 22 30 12 16 1013.3 1013.3 0.0
28/06:30pm 27.7 23.9 13.6 42 8.4 WNW 26 33 14 18 1012.9 1012.9 0.0
28/06:00pm 30.0 23.7 3.9 19 13.3 WNW 26 33 14 18 1012.6 1012.6 0.0
28/05:30pm 31.6 25.6 3.6 17 14.4 WNW 24 32 13 17 1012.3 1012.3 0.0
28/05:00pm 33.3 26.9 1.2 13 16.0 WNW 24 30 13 16 1012.2 1012.2 0.0
28/04:30pm 34.0 27.9 2.8 14 16.0 WNW 24 30 13 16 1012.1 1012.1 0.0
28/04:00pm 34.8 28.6 0.0 11 17.2 WNW 22 32 12 17 1012.1 1012.1 0.0
28/03:30pm 35.0 28.7 1.4 12 17.0 NW 24 33 13 18 1012.1 1012.1 0.0
28/03:00pm 35.2 29.6 1.5 12 17.1 W 20 30 11 16 1012.2 1012.2 0.0
28/02:30pm 34.8 29.8 4.4 15 16.1 W 20 32 11 17 1012.4 1012.4 0.0
28/02:00pm 35.2 30.6 3.7 14 16.5 WNW 17 28 9 15 1012.5 1012.5 0.0
28/01:30pm 35.1 30.9 5.5 16 16.0 WNW 17 28 9 15 1012.8 1012.8 0.0
28/01:00pm 34.6 31.4 6.8 18 15.3 N 13 26 7 14 1013.0 1013.0 0.0
28/12:30pm 33.9 30.9 7.8 20 14.5 N 13 22 7 12 1013.8 1013.7 0.0
28/12:00pm 32.7 28.7 8.2 22 13.6 N 19 24 10 13 1014.4 1014.3 0.0
28/11:30am 33.0 30.1 10.9 26 12.8 NNE 17 20 9 11 1014.8 1014.7 0.0
28/11:00am 33.4 29.7 2.3 14 15.8 SSW 11 19 6 10 1015.4 1015.3 0.0
28/10:30am 31.9 28.9 2.1 15 14.9 SW 7 13 4 7 1015.8 1015.7 0.0
28/10:00am 31.7 28.1 2.8 16 14.6 SW 11 22 6 12 1016.0 1015.9 0.0
28/09:30am 30.3 27.6 5.6 21 13.0 S 9 15 5 8 1016.3 1016.2 0.0
28/09:00am 29.2 27.5 7.7 26 11.6 S 6 11 3 6 1016.4 1016.3 0.0
28/08:30am 27.1 25.1 8.5 31 10.1 SW 9 13 5 7 1016.3 1016.2 0.0
28/08:00am 25.4 23.9 9.3 36 8.8 SSW 7 9 4 5 1016.2 1016.1 0.0
28/07:30am 23.3 22.4 10.7 45 7.0 SW 6 9 3 5 1015.8 1015.7 0.0
28/07:00am 19.2 19.8 12.0 63 4.0 CALM 0 0 0 0 1015.6 1015.5 0.0
28/06:30am 17.8 17.0 11.6 67 3.4 W 7 9 4 5 1015.4 1015.3 0.0
28/06:00am 17.4 16.7 11.4 68 3.3 W 6 7 3 4 1015.2 1015.1 0.0
28/05:30am 17.8 17.0 11.8 68 3.3 W 7 13 4 7 1015.0 1014.9 0.0
28/05:00am 19.1 17.6 11.9 63 4.0 SW 11 13 6 7 1014.7 1014.6 0.0
28/04:30am 19.4 17.1 12.9 66 3.7 SW 17 19 9 10 1014.2 1014.1 0.0
28/04:00am 19.1 17.0 13.7 71 3.1 SSW 17 19 9 10 1014.3 1014.2 0.0
28/03:30am 19.5 18.0 14.3 72 3.0 SSW 15 17 8 9 1014.5 1014.4 0.0
28/03:00am 19.6 17.9 14.8 74 2.8 SSW 17 20 9 11 1014.5 1014.4 0.0
28/02:30am 20.0 19.2 15.2 74 2.8 SSW 13 17 7 9 1014.8 1014.7 0.0
28/02:00am 21.2 19.5 15.7 71 3.3 SW 19 26 10 14 1014.9 1014.8 0.0
28/01:30am 21.2 20.4 16.0 72 3.1 WSW 15 24 8 13 1015.0 1014.9 0.0
28/01:00am 21.7 20.1 16.4 72 3.2 WSW 20 26 11 14 1015.2 1015.1 0.0
28/12:30am 22.1 20.5 16.6 71 3.3 W 20 28 11 15 1015.4 1015.3 0.0
28/12:00am 21.7 20.9 17.1 75 2.8 W 17 22 9 12 1015.6 1015.5 0.0
 
Date/Time
WST
Temp
°C
App
Temp
°C
Dew
Point
Rel
Hum
%
Delta-T
°C
Wind Press
QNH
hPa
Press
MSL
hPa
Rain
since 9 am
mm
Dir
 
Spd
km/h
Gust
km/h
Spd
kts
Gust
kts
27/11:30pm 21.7 21.0 17.3 76 2.7 W 17 24 9 13 1015.9 1015.8 0.0
27/11:00pm 22.0 21.7 17.4 75 2.8 W 15 19 8 10 1015.9 1015.8 0.0
27/10:30pm 22.3 22.3 17.2 73 3.1 W 13 19 7 10 1015.9 1015.8 0.0
27/10:00pm 22.8 21.9 16.8 69 3.7 W 17 22 9 12 1015.8 1015.7 0.0
27/09:30pm 22.9 21.6 16.7 68 3.8 W 19 28 10 15 1015.8 1015.7 0.0
27/09:00pm 23.5 21.1 16.5 65 4.3 W 24 35 13 19 1015.5 1015.4 0.0
27/08:30pm 23.9 20.7 16.2 62 4.7 W 28 39 15 21 1015.0 1014.9 0.0
27/08:00pm 24.3 20.4 14.4 54 5.9 W 28 35 15 19 1014.8 1014.7 0.0

Other Formats:

Comma delimited format used in spreadsheet applications
http://www.bom.gov.au/fwo/IDW60801/IDW60801.94308.axf

JavaScript Object Notation format (JSON) in row-major order
http://www.bom.gov.au/fwo/IDW60801/IDW60801.94308.json